PWSweather.com
Personal Weather Stations
Station Observations
265NC
Va2kh, Stcasimir, QC G0A 3L0

Va2khStcasimir, QC G0A 3L0

Lat: 46.65839, Lon: -72.13905

Elevation: 105

Station Type: National Geographic 265NC

http://www.qsl.net/va2kh

High Low Average
Temperature 65.5°F18.6°F 62.6°F17.0°F 64.1°F17.8°F
Dew Point 65.2°F18.4°F 62.3°F16.8°F 63.8°F17.7°F
Winds 4.1 mph SE6.6 mph SE Calm Calm 1.6 mph 2.6 mph
Wind Gusts 13.0 mph20.9 mph 1.6 mph2.6 mph 6.5 mph10.5 mph
Humidity 99% 99% 99%
Pressure 29.83 in1010.20 in 29.45 in997.30 in -
Precipitation 4.33 in110.00 in - -
Hour Temp Dew Point Humidity Winds Wind Gusts Pressure Precip Precip Rate Daily Precip Total
12:00 AM 64.4°F18.0°C 64.1°F17.8°C 99% 0.4 mph WSW0.6 kmh WSW 3.8 mph6.1 kmh 29.83 in1010.2 mb 0.01 in0.3 mm 0.00 in0.0 mm 0.01 in0.3 mm
12:01 AM 64.4°F18.0°C 64.1°F17.8°C 99% 0.5 mph WSW0.8 kmh WSW 3.8 mph6.1 kmh 29.83 in1010.2 mb 0.01 in0.3 mm 0.00 in0.0 mm 0.01 in0.3 mm
12:15 AM 64.4°F18.0°C 64.1°F17.8°C 99% 0.8 mph SW1.3 kmh SW 4.5 mph7.2 kmh 29.83 in1010.2 mb 0.01 in0.3 mm 0.00 in0.0 mm 0.01 in0.3 mm
12:30 AM 64.4°F18.0°C 64.1°F17.8°C 99% 0.9 mph SSW1.4 kmh SSW 3.1 mph5.0 kmh 29.83 in1010.2 mb 0.01 in0.3 mm 0.00 in0.0 mm 0.01 in0.3 mm
12:45 AM 64.2°F17.9°C 64.0°F17.8°C 99% 0.1 mph S0.2 kmh S 3.1 mph5.0 kmh 29.82 in1009.8 mb 0.01 in0.3 mm 0.00 in0.0 mm 0.01 in0.3 mm
01:00 AM 64.2°F17.9°C 64.0°F17.8°C 99% Calm Calm 1.6 mph2.6 kmh 29.83 in1010.2 mb 0.02 in0.5 mm 0.01 in0.3 mm 0.02 in0.5 mm
01:15 AM 64.2°F17.9°C 64.0°F17.8°C 99% 0.1 mph ESE0.2 kmh ESE 2.2 mph3.5 kmh 29.83 in1010.2 mb 0.02 in0.5 mm 0.00 in0.0 mm 0.04 in1.0 mm
01:30 AM 64.0°F17.8°C 63.8°F17.7°C 99% 1.0 mph SE1.6 kmh SE 4.5 mph7.2 kmh 29.81 in1009.5 mb 0.02 in0.5 mm 0.00 in0.0 mm 0.04 in1.0 mm
01:45 AM 63.9°F17.7°C 63.6°F17.6°C 99% 0.8 mph E1.3 kmh E 3.8 mph6.1 kmh 29.80 in1009.1 mb 0.06 in1.5 mm 0.16 in4.1 mm 0.07 in1.8 mm
02:00 AM 63.7°F17.6°C 63.4°F17.4°C 99% 0.8 mph E1.3 kmh E 4.5 mph7.2 kmh 29.80 in1009.1 mb 0.05 in1.3 mm 0.00 in0.0 mm 0.07 in1.8 mm
02:15 AM 63.5°F17.5°C 63.2°F17.3°C 99% 0.6 mph ENE1.0 kmh ENE 3.1 mph5.0 kmh 29.79 in1008.8 mb 0.04 in1.0 mm 0.00 in0.0 mm 0.07 in1.8 mm
02:30 AM 63.5°F17.5°C 63.2°F17.3°C 99% 0.7 mph E1.1 kmh E 3.8 mph6.1 kmh 29.79 in1008.8 mb 0.02 in0.5 mm 0.00 in0.0 mm 0.07 in1.8 mm
02:45 AM 63.3°F17.4°C 63.1°F17.3°C 99% 1.3 mph E2.1 kmh E 5.4 mph8.7 kmh 29.78 in1008.5 mb 0.00 in0.0 mm 0.00 in0.0 mm 0.07 in1.8 mm
03:00 AM 63.3°F17.4°C 63.1°F17.3°C 99% 0.7 mph E1.1 kmh E 4.5 mph7.2 kmh 29.78 in1008.5 mb 0.00 in0.0 mm 0.00 in0.0 mm 0.07 in1.8 mm
03:15 AM 63.3°F17.4°C 63.1°F17.3°C 99% 3.1 mph ESE5.0 kmh ESE 6.9 mph11.1 kmh 29.77 in1008.1 mb 0.00 in0.0 mm 0.00 in0.0 mm 0.07 in1.8 mm
03:30 AM 63.3°F17.4°C 63.1°F17.3°C 99% 2.4 mph E3.9 kmh E 6.0 mph9.7 kmh 29.77 in1008.1 mb 0.00 in0.0 mm 0.00 in0.0 mm 0.07 in1.8 mm
03:45 AM 63.3°F17.4°C 63.1°F17.3°C 99% 2.3 mph ESE3.7 kmh ESE 6.9 mph11.1 kmh 29.76 in1007.8 mb 0.01 in0.3 mm 0.04 in1.0 mm 0.08 in2.0 mm
04:00 AM 63.1°F17.3°C 62.9°F17.2°C 99% 2.1 mph ESE3.4 kmh ESE 6.9 mph11.1 kmh 29.76 in1007.8 mb 0.02 in0.5 mm 0.01 in0.3 mm 0.09 in2.3 mm
04:15 AM 63.1°F17.3°C 62.9°F17.2°C 99% 1.3 mph SE2.1 kmh SE 8.3 mph13.4 kmh 29.76 in1007.8 mb 0.02 in0.5 mm 0.00 in0.0 mm 0.09 in2.3 mm
04:30 AM 63.1°F17.3°C 62.9°F17.2°C 99% 0.7 mph SE1.1 kmh SE 6.0 mph9.7 kmh 29.75 in1007.5 mb 0.04 in1.0 mm 0.08 in2.0 mm 0.11 in2.8 mm
04:45 AM 63.0°F17.2°C 62.7°F17.1°C 99% 0.4 mph SE0.6 kmh SE 4.5 mph7.2 kmh 29.75 in1007.5 mb 0.05 in1.3 mm 0.04 in1.0 mm 0.13 in3.3 mm
05:00 AM 62.8°F17.1°C 62.5°F16.9°C 99% 3.3 mph ESE5.3 kmh ESE 9.2 mph14.8 kmh 29.74 in1007.1 mb 0.06 in1.5 mm 0.01 in0.3 mm 0.15 in3.8 mm
05:15 AM 62.8°F17.1°C 62.5°F16.9°C 99% 4.1 mph SE6.6 kmh SE 12.1 mph19.5 kmh 29.73 in1006.8 mb 0.06 in1.5 mm 0.00 in0.0 mm 0.15 in3.8 mm
05:30 AM 62.8°F17.1°C 62.5°F16.9°C 99% 3.4 mph SE5.5 kmh SE 9.2 mph14.8 kmh 29.73 in1006.8 mb 0.05 in1.3 mm 0.00 in0.0 mm 0.15 in3.8 mm
05:45 AM 62.6°F17.0°C 62.3°F16.8°C 99% 1.9 mph ESE3.1 kmh ESE 9.2 mph14.8 kmh 29.73 in1006.8 mb 0.05 in1.3 mm 0.00 in0.0 mm 0.18 in4.6 mm
06:00 AM 62.8°F17.1°C 62.5°F16.9°C 99% 1.9 mph SE3.1 kmh SE 6.9 mph11.1 kmh 29.73 in1006.8 mb 0.06 in1.5 mm 0.01 in0.3 mm 0.21 in5.3 mm
06:15 AM 63.0°F17.2°C 62.7°F17.1°C 99% 2.9 mph SE4.7 kmh SE 9.2 mph14.8 kmh 29.73 in1006.8 mb 0.06 in1.5 mm 0.00 in0.0 mm 0.21 in5.3 mm
06:30 AM 62.8°F17.1°C 62.5°F16.9°C 99% 3.6 mph E5.8 kmh E 12.1 mph19.5 kmh 29.72 in1006.4 mb 0.09 in2.3 mm 0.12 in3.0 mm 0.25 in6.4 mm
06:45 AM 62.8°F17.1°C 62.5°F16.9°C 99% 3.0 mph ESE4.8 kmh ESE 9.2 mph14.8 kmh 29.72 in1006.4 mb 0.07 in1.8 mm 0.00 in0.0 mm 0.25 in6.4 mm
07:00 AM 63.0°F17.2°C 62.7°F17.1°C 99% 1.9 mph E3.1 kmh E 6.9 mph11.1 kmh 29.71 in1006.1 mb 0.04 in1.0 mm 0.00 in0.0 mm 0.25 in6.4 mm
07:15 AM 63.1°F17.3°C 62.9°F17.2°C 99% 2.5 mph E4.0 kmh E 7.6 mph12.2 kmh 29.71 in1006.1 mb 0.04 in1.0 mm 0.00 in0.0 mm 0.25 in6.4 mm
07:30 AM 63.1°F17.3°C 62.9°F17.2°C 99% 2.3 mph ESE3.7 kmh ESE 6.9 mph11.1 kmh 29.70 in1005.8 mb 0.00 in0.0 mm 0.00 in0.0 mm 0.25 in6.4 mm
07:45 AM 63.5°F17.5°C 63.2°F17.3°C 99% 3.3 mph ESE5.3 kmh ESE 9.2 mph14.8 kmh 29.70 in1005.8 mb 0.00 in0.0 mm 0.00 in0.0 mm 0.25 in6.4 mm
08:00 AM 63.5°F17.5°C 63.2°F17.3°C 99% 2.2 mph ESE3.5 kmh ESE 8.3 mph13.4 kmh 29.70 in1005.8 mb 0.00 in0.0 mm 0.00 in0.0 mm 0.25 in6.4 mm
08:15 AM 63.5°F17.5°C 63.2°F17.3°C 99% 2.2 mph SE3.5 kmh SE 6.0 mph9.7 kmh 29.69 in1005.4 mb 0.00 in0.0 mm 0.00 in0.0 mm 0.25 in6.4 mm
08:30 AM 63.7°F17.6°C 63.4°F17.4°C 99% 2.3 mph SSE3.7 kmh SSE 6.9 mph11.1 kmh 29.69 in1005.4 mb 0.00 in0.0 mm 0.00 in0.0 mm 0.25 in6.4 mm
08:45 AM 63.9°F17.7°C 63.6°F17.6°C 99% 0.9 mph E1.4 kmh E 4.5 mph7.2 kmh 29.69 in1005.4 mb 0.01 in0.3 mm 0.04 in1.0 mm 0.26 in6.6 mm
09:00 AM 63.9°F17.7°C 63.6°F17.6°C 99% 2.4 mph ESE3.9 kmh ESE 10.7 mph17.2 kmh 29.67 in1004.7 mb 0.01 in0.3 mm 0.00 in0.0 mm 0.26 in6.6 mm
09:15 AM 64.0°F17.8°C 63.8°F17.7°C 99% 1.1 mph SE1.8 kmh SE 6.9 mph11.1 kmh 29.67 in1004.7 mb 0.02 in0.5 mm 0.04 in1.0 mm 0.27 in6.9 mm
09:30 AM 64.0°F17.8°C 63.8°F17.7°C 99% 2.4 mph ESE3.9 kmh ESE 9.2 mph14.8 kmh 29.66 in1004.4 mb 0.02 in0.5 mm 0.00 in0.0 mm 0.27 in6.9 mm
09:45 AM 64.0°F17.8°C 63.8°F17.7°C 99% 2.0 mph SE3.2 kmh SE 7.6 mph12.2 kmh 29.65 in1004.1 mb 0.04 in1.0 mm 0.08 in2.0 mm 0.30 in7.6 mm
10:00 AM 63.9°F17.7°C 63.6°F17.6°C 99% 2.3 mph ESE3.7 kmh ESE 9.2 mph14.8 kmh 29.65 in1004.1 mb 0.08 in2.0 mm 0.05 in1.3 mm 0.34 in8.6 mm
10:15 AM 64.0°F17.8°C 63.8°F17.7°C 99% 1.8 mph SE2.9 kmh SE 9.8 mph15.8 kmh 29.64 in1003.7 mb 0.07 in1.8 mm 0.00 in0.0 mm 0.34 in8.6 mm
10:30 AM 64.4°F18.0°C 64.1°F17.8°C 99% 2.3 mph S3.7 kmh S 9.2 mph14.8 kmh 29.63 in1003.4 mb 0.08 in2.0 mm 0.04 in1.0 mm 0.35 in8.9 mm
10:45 AM 64.6°F18.1°C 64.3°F17.9°C 99% 3.0 mph SSE4.8 kmh SSE 11.4 mph18.3 kmh 29.63 in1003.4 mb 0.06 in1.5 mm 0.00 in0.0 mm 0.35 in8.9 mm
11:00 AM 64.6°F18.1°C 64.3°F17.9°C 99% 4.0 mph E6.4 kmh E 13.0 mph20.9 kmh 29.63 in1003.4 mb 0.01 in0.3 mm 0.00 in0.0 mm 0.35 in8.9 mm
11:15 AM 64.4°F18.0°C 64.1°F17.8°C 99% 1.9 mph SE3.1 kmh SE 9.2 mph14.8 kmh 29.63 in1003.4 mb 0.00 in0.0 mm 0.00 in0.0 mm 0.35 in8.9 mm
11:30 AM 64.2°F17.9°C 64.0°F17.8°C 99% 2.0 mph ESE3.2 kmh ESE 9.8 mph15.8 kmh 29.63 in1003.4 mb 0.01 in0.3 mm 0.04 in1.0 mm 0.37 in9.4 mm
11:45 AM 64.0°F17.8°C 63.8°F17.7°C 99% 1.3 mph S2.1 kmh S 6.0 mph9.7 kmh 29.62 in1003.0 mb 0.02 in0.5 mm 0.04 in1.0 mm 0.38 in9.7 mm
12:00 PM 63.7°F17.6°C 63.4°F17.4°C 99% 1.6 mph SE2.6 kmh SE 6.0 mph9.7 kmh 29.61 in1002.7 mb 0.12 in3.0 mm 0.13 in3.3 mm 0.47 in11.9 mm
12:15 PM 63.7°F17.6°C 63.4°F17.4°C 99% 2.0 mph SE3.2 kmh SE 9.2 mph14.8 kmh 29.61 in1002.7 mb 0.15 in3.8 mm 0.12 in3.0 mm 0.51 in13.0 mm
12:30 PM 63.7°F17.6°C 63.4°F17.4°C 99% 1.6 mph SSE2.6 kmh SSE 9.2 mph14.8 kmh 29.60 in1002.4 mb 0.14 in3.6 mm 0.00 in0.0 mm 0.51 in13.0 mm
12:45 PM 63.7°F17.6°C 63.4°F17.4°C 99% 0.9 mph S1.4 kmh S 5.4 mph8.7 kmh 29.60 in1002.4 mb 0.13 in3.3 mm 0.00 in0.0 mm 0.51 in13.0 mm
01:00 PM 63.9°F17.7°C 63.6°F17.6°C 99% 0.5 mph SSE0.8 kmh SSE 3.8 mph6.1 kmh 29.59 in1002.0 mb 0.05 in1.3 mm 0.00 in0.0 mm 0.52 in13.2 mm
01:15 PM 63.9°F17.7°C 63.6°F17.6°C 99% 1.0 mph S1.6 kmh S 6.9 mph11.1 kmh 29.59 in1002.0 mb 0.02 in0.5 mm 0.00 in0.0 mm 0.53 in13.5 mm
01:30 PM 63.9°F17.7°C 63.6°F17.6°C 99% 1.0 mph S1.6 kmh S 3.8 mph6.1 kmh 29.59 in1002.0 mb 0.04 in1.0 mm 0.08 in2.0 mm 0.54 in13.7 mm
01:45 PM 64.2°F17.9°C 64.0°F17.8°C 99% 0.6 mph SSE1.0 kmh SSE 4.5 mph7.2 kmh 29.58 in1001.7 mb 0.04 in1.0 mm 0.00 in0.0 mm 0.54 in13.7 mm
02:00 PM 64.0°F17.8°C 63.8°F17.7°C 99% 1.5 mph SSW2.4 kmh SSW 8.3 mph13.4 kmh 29.57 in1001.4 mb 0.05 in1.3 mm 0.01 in0.3 mm 0.57 in14.5 mm
02:15 PM 64.0°F17.8°C 63.8°F17.7°C 99% 0.7 mph S1.1 kmh S 4.5 mph7.2 kmh 29.57 in1001.4 mb 0.06 in1.5 mm 0.04 in1.0 mm 0.59 in15.0 mm
02:30 PM 64.2°F17.9°C 64.0°F17.8°C 99% 1.7 mph SW2.7 kmh SW 5.4 mph8.7 kmh 29.56 in1001.0 mb 0.06 in1.5 mm 0.00 in0.0 mm 0.60 in15.2 mm
02:45 PM 64.6°F18.1°C 64.3°F17.9°C 99% 0.7 mph S1.1 kmh S 4.5 mph7.2 kmh 29.56 in1001.0 mb 0.08 in2.0 mm 0.08 in2.0 mm 0.63 in16.0 mm
03:00 PM 64.8°F18.2°C 64.5°F18.1°C 99% 0.7 mph S1.1 kmh S 4.5 mph7.2 kmh 29.56 in1001.0 mb 0.07 in1.8 mm 0.00 in0.0 mm 0.65 in16.5 mm
03:15 PM 64.8°F18.2°C 64.5°F18.1°C 99% 0.6 mph S1.0 kmh S 3.8 mph6.1 kmh 29.56 in1001.0 mb 0.07 in1.8 mm 0.00 in0.0 mm 0.66 in16.8 mm
03:30 PM 64.6°F18.1°C 64.3°F17.9°C 99% 0.8 mph SE1.3 kmh SE 5.4 mph8.7 kmh 29.55 in1000.7 mb 0.11 in2.8 mm 0.16 in4.1 mm 0.71 in18.0 mm
03:45 PM 64.4°F18.0°C 64.1°F17.8°C 99% 1.1 mph SE1.8 kmh SE 6.9 mph11.1 kmh 29.54 in1000.3 mb 0.15 in3.8 mm 0.16 in4.1 mm 0.78 in19.8 mm
04:00 PM 64.6°F18.1°C 64.3°F17.9°C 99% 0.3 mph SSW0.5 kmh SSW 3.8 mph6.1 kmh 29.54 in1000.3 mb 0.17 in4.3 mm 0.03 in0.8 mm 0.81 in20.6 mm
04:15 PM 64.6°F18.1°C 64.3°F17.9°C 99% 0.7 mph SSW1.1 kmh SSW 4.5 mph7.2 kmh 29.53 in1000.0 mb 0.18 in4.6 mm 0.04 in1.0 mm 0.85 in21.6 mm
04:30 PM 65.1°F18.4°C 64.9°F18.3°C 99% 0.2 mph S0.3 kmh S 3.1 mph5.0 kmh 29.52 in999.7 mb 0.13 in3.3 mm 0.00 in0.0 mm 0.86 in21.8 mm
04:45 PM 64.9°F18.3°C 64.7°F18.2°C 99% 0.4 mph SSE0.6 kmh SSE 5.4 mph8.7 kmh 29.51 in999.3 mb 0.09 in2.3 mm 0.00 in0.0 mm 0.87 in22.1 mm
05:00 PM 64.9°F18.3°C 64.7°F18.2°C 99% 1.3 mph SSE2.1 kmh SSE 5.4 mph8.7 kmh 29.51 in999.3 mb 0.07 in1.8 mm 0.00 in0.0 mm 0.89 in22.6 mm
05:15 PM 64.8°F18.2°C 64.5°F18.1°C 99% 1.4 mph S2.3 kmh S 5.4 mph8.7 kmh 29.51 in999.3 mb 0.05 in1.3 mm 0.00 in0.0 mm 0.90 in22.9 mm
05:30 PM 64.6°F18.1°C 64.3°F17.9°C 99% 1.1 mph SSE1.8 kmh SSE 5.4 mph8.7 kmh 29.50 in999.0 mb 0.06 in1.5 mm 0.04 in1.0 mm 0.92 in23.4 mm
05:45 PM 64.8°F18.2°C 64.5°F18.1°C 99% 1.6 mph S2.6 kmh S 5.4 mph8.7 kmh 29.49 in998.6 mb 0.05 in1.3 mm 0.00 in0.0 mm 0.92 in23.4 mm
06:00 PM 64.6°F18.1°C 64.3°F17.9°C 99% 1.8 mph SSW2.9 kmh SSW 6.0 mph9.7 kmh 29.49 in998.6 mb 0.04 in1.0 mm 0.00 in0.0 mm 0.92 in23.4 mm
06:15 PM 64.6°F18.1°C 64.3°F17.9°C 99% 2.6 mph SW4.2 kmh SW 7.6 mph12.2 kmh 29.49 in998.6 mb 0.02 in0.5 mm 0.00 in0.0 mm 0.92 in23.4 mm
06:30 PM 64.6°F18.1°C 64.3°F17.9°C 99% 2.6 mph SW4.2 kmh SW 6.0 mph9.7 kmh 29.48 in998.3 mb 0.01 in0.3 mm 0.00 in0.0 mm 0.93 in23.6 mm
06:45 PM 64.4°F18.0°C 64.1°F17.8°C 99% 2.0 mph SW3.2 kmh SW 6.0 mph9.7 kmh 29.49 in998.6 mb 0.05 in1.3 mm 0.16 in4.1 mm 0.97 in24.6 mm
07:00 PM 64.2°F17.9°C 64.0°F17.8°C 99% 2.4 mph SSW3.9 kmh SSW 5.4 mph8.7 kmh 29.47 in998.0 mb 0.07 in1.8 mm 0.03 in0.8 mm 0.99 in25.1 mm
07:15 PM 64.4°F18.0°C 64.1°F17.8°C 99% 2.4 mph SW3.9 kmh SW 6.0 mph9.7 kmh 29.48 in998.3 mb 0.07 in1.8 mm 0.00 in0.0 mm 0.99 in25.1 mm
07:30 PM 64.8°F18.2°C 64.5°F18.1°C 99% 2.7 mph SW4.3 kmh SW 6.9 mph11.1 kmh 29.47 in998.0 mb 0.06 in1.5 mm 0.00 in0.0 mm 0.99 in25.1 mm
07:45 PM 65.1°F18.4°C 64.9°F18.3°C 99% 2.0 mph S3.2 kmh S 5.4 mph8.7 kmh 29.47 in998.0 mb 0.02 in0.5 mm 0.00 in0.0 mm 0.99 in25.1 mm
08:00 PM 65.3°F18.5°C 65.0°F18.3°C 99% 1.7 mph SSW2.7 kmh SSW 5.4 mph8.7 kmh 29.46 in997.6 mb 0.00 in0.0 mm 0.00 in0.0 mm 0.99 in25.1 mm
08:15 PM 65.3°F18.5°C 65.0°F18.3°C 99% 3.1 mph SSW5.0 kmh SSW 8.3 mph13.4 kmh 29.46 in997.6 mb 0.01 in0.3 mm 0.04 in1.0 mm 1.00 in25.4 mm
08:30 PM 65.3°F18.5°C 65.0°F18.3°C 99% 2.3 mph SSW3.7 kmh SSW 6.0 mph9.7 kmh 29.45 in997.3 mb 0.05 in1.3 mm 0.16 in4.1 mm 1.04 in26.4 mm
08:45 PM 65.5°F18.6°C 65.2°F18.4°C 99% 3.9 mph SSW6.3 kmh SSW 8.3 mph13.4 kmh 29.45 in997.3 mb 0.05 in1.3 mm 0.00 in0.0 mm 1.04 in26.4 mm
09:00 PM 65.3°F18.5°C 65.0°F18.3°C 99% 1.9 mph WSW3.1 kmh WSW 6.0 mph9.7 kmh 29.46 in997.6 mb 0.06 in1.5 mm 0.01 in0.3 mm 1.05 in26.7 mm
09:15 PM 65.5°F18.6°C 65.2°F18.4°C 99% 1.5 mph W2.4 kmh W 6.9 mph11.1 kmh 29.46 in997.6 mb 0.09 in2.3 mm 0.12 in3.0 mm 1.10 in27.9 mm
09:30 PM 65.1°F18.4°C 64.9°F18.3°C 99% 0.9 mph W1.4 kmh W 6.9 mph11.1 kmh 29.47 in998.0 mb 0.06 in1.5 mm 0.00 in0.0 mm 1.10 in27.9 mm
09:45 PM 64.9°F18.3°C 64.7°F18.2°C 99% 1.6 mph WSW2.6 kmh WSW 9.8 mph15.8 kmh 29.47 in998.0 mb 0.06 in1.5 mm 0.00 in0.0 mm 1.10 in27.9 mm
10:00 PM 64.6°F18.1°C 64.3°F17.9°C 99% 0.9 mph WSW1.4 kmh WSW 4.5 mph7.2 kmh 29.47 in998.0 mb 0.04 in1.0 mm 0.00 in0.0 mm 1.10 in27.9 mm
10:15 PM 64.4°F18.0°C 64.1°F17.8°C 99% 0.2 mph W0.3 kmh W 3.8 mph6.1 kmh 29.48 in998.3 mb 0.00 in0.0 mm 0.00 in0.0 mm 1.10 in27.9 mm
10:30 PM 64.4°F18.0°C 64.1°F17.8°C 99% 1.1 mph WNW1.8 kmh WNW 7.6 mph12.2 kmh 29.47 in998.0 mb 0.00 in0.0 mm 0.00 in0.0 mm 1.10 in27.9 mm
10:45 PM 64.4°F18.0°C 64.1°F17.8°C 99% 0.7 mph WSW1.1 kmh WSW 6.0 mph9.7 kmh 29.47 in998.0 mb 0.00 in0.0 mm 0.00 in0.0 mm 1.10 in27.9 mm
11:00 PM 64.4°F18.0°C 64.1°F17.8°C 99% 0.4 mph NW0.6 kmh NW 6.9 mph11.1 kmh 29.47 in998.0 mb 0.00 in0.0 mm 0.00 in0.0 mm 1.10 in27.9 mm
11:15 PM 64.2°F17.9°C 64.0°F17.8°C 99% 1.0 mph NW1.6 kmh NW 7.6 mph12.2 kmh 29.47 in998.0 mb 0.00 in0.0 mm 0.00 in0.0 mm 1.10 in27.9 mm
11:30 PM 64.2°F17.9°C 64.0°F17.8°C 99% 1.5 mph W2.4 kmh W 6.9 mph11.1 kmh 29.47 in998.0 mb 0.00 in0.0 mm 0.00 in0.0 mm 1.10 in27.9 mm
11:45 PM 64.0°F17.8°C 63.8°F17.7°C 99% 1.0 mph NW1.6 kmh NW 5.4 mph8.7 kmh 29.47 in998.0 mb 0.00 in0.0 mm 0.00 in0.0 mm 1.10 in27.9 mm